Time;durP1;ratioP1;P1;durP2;ratioP2;P2;SDS_P1;SDS_P2;PMS_P1;PMS_P2;Temp;Humidity;BMP_temperature;BMP_pressure;BME280_temperature;BME280_humidity;BME280_pressure;Samples;Min_cycle;Max_cycle;Signal;HPM_P1;HPM_P2
2024/03/19 00:01:57;;;;;;;14.40;9.50;;;15.80;80.70;;;;;;4152885;28;20111;-48
2024/03/19 00:04:37;;;;;;;15.30;9.18;;;15.80;80.70;;;;;;4158026;28;20056;-50
2024/03/19 00:07:17;;;;;;;15.65;9.75;;;15.80;80.70;;;;;;4166305;28;20051;-49
2024/03/19 00:09:58;;;;;;;12.23;10.30;;;15.80;80.70;;;;;;4157389;28;20055;-51
2024/03/19 00:12:38;;;;;;;13.18;10.25;;;15.70;80.70;;;;;;4169449;28;20052;-52
2024/03/19 00:15:18;;;;;;;12.18;10.10;;;15.70;80.80;;;;;;4167651;28;20048;-53
2024/03/19 00:17:58;;;;;;;11.82;10.38;;;15.70;80.90;;;;;;4152596;28;20060;-50
2024/03/19 00:20:38;;;;;;;11.98;10.35;;;15.70;81.00;;;;;;4155121;28;20425;-49
2024/03/19 00:23:21;;;;;;;10.05;9.05;;;15.70;81.10;;;;;;4170803;28;20102;-48
2024/03/19 00:26:02;;;;;;;10.45;9.45;;;15.70;81.10;;;;;;4169431;28;20102;-50
2024/03/19 00:28:42;;;;;;;;;;;15.70;81.10;;;;;;4168539;28;20051;-50
2024/03/19 00:31:23;;;;;;;11.73;9.02;;;15.60;81.10;;;;;;4159500;28;19931;-48
2024/03/19 00:34:03;;;;;;;11.27;10.15;;;15.60;81.80;;;;;;4160200;28;20063;-51
2024/03/19 00:36:43;;;;;;;15.90;10.50;;;15.60;81.60;;;;;;4162032;28;20068;-51
2024/03/19 00:39:23;;;;;;;10.98;9.88;;;15.60;81.60;;;;;;4168167;28;20064;-50
2024/03/19 00:42:06;;;;;;;10.88;9.77;;;15.60;81.50;;;;;;4162092;28;20392;-49
2024/03/19 00:44:46;;;;;;;11.98;8.60;;;15.60;81.50;;;;;;4153409;28;20106;-48
2024/03/19 00:47:26;;;;;;;10.73;9.32;;;15.60;81.50;;;;;;4154814;28;20056;-47
2024/03/19 00:50:07;;;;;;;11.67;10.47;;;15.60;81.50;;;;;;4133364;28;20064;-49
2024/03/19 00:52:47;;;;;;;10.95;9.70;;;15.60;81.60;;;;;;4152879;28;20052;-49
2024/03/19 00:55:27;;;;;;;11.60;9.35;;;15.60;81.60;;;;;;4154521;28;20049;-49
2024/03/19 00:58:09;;;;;;;12.55;9.23;;;15.60;81.60;;;;;;4143071;28;20048;-43
2024/03/19 01:00:49;;;;;;;13.82;9.30;;;15.50;81.50;;;;;;4143735;28;20130;-42
2024/03/19 01:03:29;;;;;;;14.40;8.98;;;15.50;81.60;;;;;;4153459;28;20100;-44
2024/03/19 01:06:09;;;;;;;23.83;8.18;;;15.50;81.60;;;;;;4168547;28;20060;-44
2024/03/19 01:08:49;;;;;;;27.33;8.33;;;15.50;81.50;;;;;;4154126;28;20057;-44
2024/03/19 01:11:32;;;;;;;17.42;8.35;;;15.50;81.60;;;;;;4154725;28;20353;-42
2024/03/19 01:14:14;;;;;;;9.75;8.55;;;15.50;81.60;;;;;;4164647;28;20047;-42
2024/03/19 01:16:54;;;;;;;9.73;8.73;;;15.50;81.50;;;;;;4168357;28;20396;-44
2024/03/19 01:19:34;;;;;;;10.35;8.80;;;15.50;81.50;;;;;;4145780;28;20103;-42
2024/03/19 01:22:15;;;;;;;11.27;8.82;;;15.50;81.30;;;;;;4154154;28;20063;-43
2024/03/19 01:24:55;;;;;;;9.25;8.27;;;15.50;81.50;;;;;;4153798;28;20140;-44
2024/03/19 01:27:35;;;;;;;11.10;8.68;;;15.50;81.60;;;;;;4146201;28;20048;-44
2024/03/19 01:30:17;;;;;;;9.10;8.20;;;15.50;81.50;;;;;;4153638;28;20056;-44
2024/03/19 01:32:57;;;;;;;10.90;8.90;;;15.50;81.50;;;;;;4162881;28;20428;-45
2024/03/19 01:35:38;;;;;;;10.45;8.75;;;15.40;81.50;;;;;;4164658;28;20060;-44
2024/03/19 01:38:18;;;;;;;10.70;9.20;;;15.40;81.50;;;;;;4155798;28;20083;-45
2024/03/19 01:40:58;;;;;;;11.00;9.10;;;15.40;81.50;;;;;;4164122;28;20039;-46
2024/03/19 01:43:42;;;;;;;13.15;10.23;;;15.40;81.50;;;;;;4169673;28;20051;-45
2024/03/19 01:46:27;;;;;;;11.15;9.25;;;15.40;81.50;;;;;;4169891;28;20094;-45
2024/03/19 01:49:07;;;;;;;10.13;9.05;;;15.40;81.50;;;;;;4169408;28;20059;-46
2024/03/19 01:51:49;;;;;;;12.68;10.40;;;15.40;81.60;;;;;;4169252;28;20055;-45
2024/03/19 01:54:32;;;;;;;11.60;8.73;;;15.40;81.50;;;;;;4161980;28;20076;-45
2024/03/19 01:57:13;;;;;;;12.05;9.95;;;15.40;81.50;;;;;;4144044;28;20048;-44
2024/03/19 01:59:53;;;;;;;12.40;10.13;;;15.40;81.60;;;;;;4152164;28;20566;-44
2024/03/19 02:02:35;;;;;;;13.82;9.40;;;15.40;81.70;;;;;;4158797;28;20100;-43
2024/03/19 02:05:16;;;;;;;12.93;9.88;;;15.40;81.70;;;;;;4152975;28;20068;-45
2024/03/19 02:07:56;;;;;;;12.95;9.30;;;15.30;81.80;;;;;;4159287;28;20126;-44
2024/03/19 02:10:36;;;;;;;13.15;9.77;;;15.30;81.80;;;;;;4168764;28;20408;-42
2024/03/19 02:13:16;;;;;;;11.90;9.80;;;15.30;81.80;;;;;;4169317;28;20140;-44
2024/03/19 02:15:56;;;;;;;12.27;10.07;;;15.30;81.70;;;;;;4152954;28;20045;-43
2024/03/19 02:18:38;;;;;;;17.13;10.53;;;15.30;80.90;;;;;;4165185;28;20064;-42
2024/03/19 02:21:18;;;;;;;17.85;10.15;;;15.30;81.80;;;;;;4168316;28;20318;-43
2024/03/19 02:24:00;;;;;;;12.38;9.73;;;15.30;81.90;;;;;;4154261;28;20103;-45
2024/03/19 02:26:41;;;;;;;12.23;9.38;;;15.30;81.90;;;;;;4152493;28;20060;-45
2024/03/19 02:29:22;;;;;;;15.27;10.20;;;15.30;82.00;;;;;;4153701;28;20056;-44
2024/03/19 02:32:02;;;;;;;9.90;8.20;;;15.30;82.10;;;;;;4151990;28;20118;-44
2024/03/19 02:34:42;;;;;;;11.75;8.57;;;15.30;82.10;;;;;;4152677;28;20056;-43
2024/03/19 02:37:22;;;;;;;12.68;8.65;;;15.30;82.10;;;;;;4165446;28;20071;-42
2024/03/19 02:40:05;;;;;;;10.88;9.00;;;15.30;82.10;;;;;;4141164;28;20405;-43
2024/03/19 02:42:45;;;;;;;12.43;8.40;;;15.30;82.00;;;;;;4145221;28;20056;-44
2024/03/19 02:45:26;;;;;;;10.95;8.27;;;15.30;82.10;;;;;;4154553;28;20048;-42
2024/03/19 02:48:07;;;;;;;11.55;8.15;;;15.20;82.10;;;;;;4154853;28;20079;-43
2024/03/19 02:50:47;;;;;;;10.93;7.78;;;15.30;82.30;;;;;;4168137;28;20566;-42
2024/03/19 02:53:27;;;;;;;11.00;7.45;;;15.20;82.30;;;;;;4163823;28;20051;-44
2024/03/19 02:56:08;;;;;;;14.45;8.60;;;15.20;82.30;;;;;;4145348;28;20055;-43
2024/03/19 02:58:48;;;;;;;;;;;15.20;82.30;;;;;;4168055;28;20052;-44
2024/03/19 03:01:29;;;;;;;10.40;8.50;;;15.20;82.30;;;;;;4167620;28;20492;-46
2024/03/19 03:04:09;;;;;;;10.27;6.95;;;15.20;82.90;;;;;;4160943;28;20095;-43
2024/03/19 03:06:50;;;;;;;12.00;7.70;;;15.20;82.70;;;;;;4155990;28;20060;-43
2024/03/19 03:09:30;;;;;;;9.88;7.60;;;15.20;82.60;;;;;;4162126;28;20048;-43
2024/03/19 03:12:11;;;;;;;13.05;8.10;;;15.20;82.60;;;;;;4157873;28;20796;-42
2024/03/19 03:14:51;;;;;;;;;;;15.20;82.60;;;;;;4173496;28;20061;-43
2024/03/19 03:17:31;;;;;;;10.27;7.97;;;15.20;82.50;;;;;;4172719;28;19967;-44
2024/03/19 03:20:12;;;;;;;10.50;7.95;;;15.10;83.00;;;;;;4168444;28;20136;-44
2024/03/19 03:22:52;;;;;;;11.38;7.78;;;15.10;82.80;;;;;;4172684;28;20065;-42
2024/03/19 03:25:32;;;;;;;13.90;8.50;;;15.10;82.70;;;;;;4172869;28;20546;-43
2024/03/19 03:28:13;;;;;;;8.60;7.63;;;15.10;82.70;;;;;;4160932;28;20456;-42
2024/03/19 03:30:53;;;;;;;8.50;6.80;;;15.10;82.60;;;;;;4151275;28;20180;-42
2024/03/19 03:33:33;;;;;;;11.75;7.57;;;15.10;82.60;;;;;;4152094;28;20111;-43
2024/03/19 03:36:13;;;;;;;10.88;7.47;;;15.10;82.70;;;;;;4155455;28;20065;-44
2024/03/19 03:38:54;;;;;;;9.32;7.50;;;15.10;82.70;;;;;;4156231;28;20107;-43
2024/03/19 03:41:34;;;;;;;10.90;7.15;;;15.10;82.70;;;;;;4153927;28;20044;-42
2024/03/19 03:44:15;;;;;;;8.45;6.85;;;15.10;82.60;;;;;;4167165;28;20048;-43
2024/03/19 03:46:55;;;;;;;;;;;15.10;82.50;;;;;;4159534;28;20052;-44
2024/03/19 03:49:35;;;;;;;8.82;6.90;;;15.10;82.40;;;;;;4154546;28;19967;-43
2024/03/19 03:52:15;;;;;;;10.20;7.68;;;15.10;83.10;;;;;;4155815;28;20128;-43
2024/03/19 03:54:55;;;;;;;8.23;7.15;;;15.10;82.90;;;;;;4154494;28;20102;-43
2024/03/19 03:57:36;;;;;;;11.32;7.80;;;15.10;82.80;;;;;;4155610;28;20400;-42
2024/03/19 04:00:18;;;;;;;10.65;7.28;;;15.10;82.70;;;;;;4155213;28;20061;-43
2024/03/19 04:02:58;;;;;;;11.20;6.93;;;15.00;82.50;;;;;;4154446;28;20063;-43
2024/03/19 04:05:39;;;;;;;10.40;6.45;;;15.00;82.60;;;;;;4171906;28;20498;-44
2024/03/19 04:08:20;;;;;;;12.15;7.10;;;15.10;82.60;;;;;;4171665;28;20055;-43
2024/03/19 04:11:00;;;;;;;12.20;7.18;;;15.10;82.70;;;;;;4172190;28;20449;-42
2024/03/19 04:13:40;;;;;;;12.95;6.80;;;15.10;83.20;;;;;;4171603;28;20067;-45
2024/03/19 04:16:23;;;;;;;9.35;6.63;;;15.20;83.50;;;;;;4155531;28;20483;-43
2024/03/19 04:19:02;;;;;;;9.98;6.72;;;15.30;83.50;;;;;;4139053;28;20129;-45
2024/03/19 04:21:43;;;;;;;9.60;6.20;;;15.30;83.30;;;;;;4143809;28;20180;-45
2024/03/19 04:24:23;;;;;;;9.85;6.50;;;15.40;83.10;;;;;;4154966;28;20538;-43
2024/03/19 04:27:03;;;;;;;8.07;6.55;;;15.40;82.90;;;;;;4154466;28;20099;-43
2024/03/19 04:29:43;;;;;;;10.63;6.93;;;15.50;82.80;;;;;;4169413;28;20056;-42
2024/03/19 04:32:24;;;;;;;10.55;6.50;;;15.50;82.70;;;;;;4171416;28;20048;-43
2024/03/19 04:35:05;;;;;;;9.85;7.47;;;15.50;82.50;;;;;;4162314;28;20107;-43
2024/03/19 04:37:45;;;;;;;11.48;6.07;;;15.50;82.50;;;;;;4155010;28;20130;-43
2024/03/19 04:40:25;;;;;;;10.45;6.63;;;15.50;82.40;;;;;;4169391;28;20060;-44
2024/03/19 04:43:05;;;;;;;15.20;7.05;;;15.50;82.50;;;;;;4170978;28;20055;-42
2024/03/19 04:45:46;;;;;;;13.87;7.40;;;15.50;82.70;;;;;;4152752;28;20060;-48
2024/03/19 04:48:28;;;;;;;11.68;7.07;;;15.50;82.70;;;;;;4161909;28;20096;-47
2024/03/19 04:51:09;;;;;;;11.90;7.00;;;15.50;82.50;;;;;;4143061;28;20141;-48
2024/03/19 04:53:49;;;;;;;9.00;6.00;;;15.60;82.80;;;;;;4169572;28;20055;-50
2024/03/19 04:56:29;;;;;;;11.63;6.40;;;15.60;82.30;;;;;;4167947;28;20052;-49
2024/03/19 04:59:10;;;;;;;11.20;6.05;;;15.60;82.20;;;;;;4167301;28;20048;-49
2024/03/19 05:01:51;;;;;;;10.32;6.95;;;15.70;82.20;;;;;;4170928;28;20110;-49
2024/03/19 05:04:33;;;;;;;9.55;6.97;;;15.60;82.30;;;;;;4168885;28;20055;-52
2024/03/19 05:07:13;;;;;;;14.98;6.85;;;15.70;82.30;;;;;;4170694;28;20056;-48
2024/03/19 05:09:55;;;;;;;8.43;7.13;;;15.70;82.10;;;;;;4155713;28;20060;-49
2024/03/19 05:12:35;;;;;;;10.50;6.53;;;15.80;81.90;;;;;;4154234;28;20102;-49
2024/03/19 05:15:15;;;;;;;13.77;6.88;;;15.80;82.60;;;;;;4154658;28;20099;-50
2024/03/19 05:17:55;;;;;;;10.18;6.97;;;15.80;81.80;;;;;;4154256;28;20132;-49
2024/03/19 05:20:36;;;;;;;12.05;6.88;;;15.80;81.80;;;;;;4153187;28;20056;-48
2024/03/19 05:23:16;;;;;;;;;;;15.80;81.80;;;;;;4154485;28;20099;-50
2024/03/19 05:25:57;;;;;;;10.65;7.25;;;15.90;81.90;;;;;;4153855;28;19933;-49
2024/03/19 05:28:36;;;;;;;13.38;7.32;;;15.90;81.80;;;;;;4154480;28;20076;-49
2024/03/19 05:31:22;;;;;;;14.30;7.35;;;15.90;82.40;;;;;;4169700;28;20063;-48
2024/03/19 05:34:02;;;;;;;12.02;7.57;;;15.90;81.50;;;;;;4170352;28;20071;-50
2024/03/19 05:36:44;;;;;;;10.60;7.22;;;15.90;81.80;;;;;;4169965;28;20108;-48
2024/03/19 05:39:24;;;;;;;;;;;16.00;81.60;;;;;;4154573;28;20057;-51
2024/03/19 05:42:04;;;;;;;14.70;8.02;;;16.00;81.50;;;;;;4153764;28;19932;-49
2024/03/19 05:44:45;;;;;;;14.07;7.57;;;16.00;81.50;;;;;;4142705;28;20858;-48
2024/03/19 05:47:25;;;;;;;13.73;8.13;;;16.00;81.20;;;;;;4166846;28;20056;-51
2024/03/19 05:50:08;;;;;;;13.48;8.13;;;16.00;81.20;;;;;;4158672;28;20512;-50
2024/03/19 05:52:49;;;;;;;14.93;8.38;;;16.00;81.20;;;;;;4166498;28;20194;-49
2024/03/19 05:55:29;;;;;;;14.38;8.13;;;16.00;81.20;;;;;;4169245;28;20055;-49
2024/03/19 05:58:09;;;;;;;13.35;8.38;;;16.00;81.10;;;;;;4168879;28;20102;-48
2024/03/19 06:00:49;;;;;;;15.57;8.65;;;16.00;81.10;;;;;;4157960;28;20137;-46
2024/03/19 06:03:31;;;;;;;14.10;8.00;;;16.00;81.10;;;;;;4144439;28;20056;-50
2024/03/19 06:06:12;;;;;;;13.75;8.02;;;16.00;81.40;;;;;;4153339;28;20100;-48
2024/03/19 06:08:53;;;;;;;13.25;8.93;;;16.00;81.50;;;;;;4162231;28;20152;-51
2024/03/19 06:11:33;;;;;;;;;;;16.10;81.30;;;;;;4165102;28;20060;-42
2024/03/19 06:14:14;;;;;;;16.48;8.40;;;16.20;81.20;;;;;;4160816;28;19927;-43
2024/03/19 06:16:54;;;;;;;13.13;8.93;;;16.20;81.00;;;;;;4162326;28;20061;-43
2024/03/19 06:19:34;;;;;;;14.18;8.32;;;16.20;80.90;;;;;;4165113;28;20122;-42
2024/03/19 06:22:14;;;;;;;14.00;8.43;;;16.20;80.80;;;;;;4155022;28;20638;-42
2024/03/19 06:24:55;;;;;;;14.05;8.15;;;16.20;80.90;;;;;;4161485;28;20052;-42
2024/03/19 06:27:35;;;;;;;;;;;16.20;81.10;;;;;;4148963;28;20096;-49
2024/03/19 06:30:15;;;;;;;13.85;8.35;;;16.20;81.20;;;;;;4140042;28;19965;-48
2024/03/19 06:32:56;;;;;;;14.32;8.10;;;16.10;81.30;;;;;;4140824;28;20130;-49
2024/03/19 06:35:36;;;;;;;18.00;8.23;;;16.10;81.30;;;;;;4158474;28;20415;-48
2024/03/19 06:38:16;;;;;;;12.85;8.13;;;16.10;81.00;;;;;;4154724;28;20523;-49
2024/03/19 06:40:57;;;;;;;13.77;8.50;;;16.20;80.90;;;;;;4136743;28;20128;-49
2024/03/19 06:43:37;;;;;;;13.35;7.95;;;16.20;80.70;;;;;;4147062;28;20044;-47
2024/03/19 06:46:17;;;;;;;16.80;9.07;;;16.20;80.50;;;;;;4169556;28;20055;-49
2024/03/19 06:48:57;;;;;;;10.48;7.65;;;16.30;80.60;;;;;;4156882;28;20060;-47
2024/03/19 06:51:37;;;;;;;16.50;8.73;;;16.20;80.50;;;;;;4169255;28;20048;-48
2024/03/19 06:54:17;;;;;;;19.98;8.40;;;16.20;80.50;;;;;;4166985;28;20121;-43
2024/03/19 06:56:59;;;;;;;12.85;8.43;;;16.20;80.60;;;;;;4162722;28;20056;-42
2024/03/19 06:59:39;;;;;;;13.60;7.80;;;16.10;80.70;;;;;;4167113;28;20048;-43
2024/03/19 07:02:19;;;;;;;12.57;8.20;;;16.10;80.90;;;;;;4161401;28;20052;-42
2024/03/19 07:04:59;;;;;;;15.82;8.48;;;16.10;81.10;;;;;;4169369;28;20136;-42
2024/03/19 07:07:39;;;;;;;14.43;9.27;;;16.10;81.20;;;;;;4166479;28;20055;-42
2024/03/19 07:10:20;;;;;;;14.98;8.48;;;16.20;81.10;;;;;;4152948;28;20057;-42
2024/03/19 07:13:01;;;;;;;13.93;8.35;;;16.20;81.00;;;;;;4152556;28;20056;-42
2024/03/19 07:15:41;;;;;;;12.73;7.93;;;16.20;80.90;;;;;;4153088;28;20115;-42
2024/03/19 07:18:22;;;;;;;15.48;8.68;;;16.20;80.90;;;;;;4153046;28;20061;-42
2024/03/19 07:21:02;;;;;;;14.90;9.15;;;16.30;80.60;;;;;;4153869;28;20061;-42
2024/03/19 07:23:42;;;;;;;14.18;8.27;;;16.30;80.30;;;;;;4131461;28;20788;-42
2024/03/19 07:26:22;;;;;;;13.00;8.00;;;16.30;80.30;;;;;;4153730;28;20131;-42
2024/03/19 07:29:03;;;;;;;16.40;8.85;;;16.40;80.30;;;;;;4169500;28;20056;-42
2024/03/19 07:31:44;;;;;;;;;;;16.40;80.20;;;;;;4169519;28;20091;-41
2024/03/19 07:34:24;;;;;;;14.38;7.85;;;16.40;80.40;;;;;;4168999;28;20011;-41
2024/03/19 07:37:04;;;;;;;10.60;7.30;;;16.40;80.20;;;;;;4160432;28;20102;-48
2024/03/19 07:39:45;;;;;;;15.50;9.15;;;16.40;80.10;;;;;;4158534;28;20067;-48
2024/03/19 07:42:25;;;;;;;18.45;8.98;;;16.40;79.90;;;;;;4138544;28;20060;-48
2024/03/19 07:45:07;;;;;;;12.68;8.48;;;16.40;79.80;;;;;;4136318;28;20057;-47
2024/03/19 07:47:48;;;;;;;15.32;8.55;;;16.50;79.30;;;;;;4168786;28;20134;-47
2024/03/19 07:50:32;;;;;;;14.13;7.85;;;16.40;78.80;;;;;;4171351;28;20135;-48
2024/03/19 07:53:14;;;;;;;19.40;9.32;;;16.40;78.90;;;;;;4155905;28;20132;-49
2024/03/19 07:55:54;;;;;;;13.27;8.35;;;16.40;78.70;;;;;;4149855;28;20271;-48
2024/03/19 07:58:33;;;;;;;14.98;8.98;;;16.40;78.70;;;;;;4152622;28;20063;-51
2024/03/19 08:01:14;;;;;;;12.98;7.93;;;16.40;79.00;;;;;;4171057;28;20068;-48
2024/03/19 08:03:55;;;;;;;12.07;8.38;;;16.30;79.10;;;;;;4170993;28;20526;-48
2024/03/19 08:06:35;;;;;;;10.93;7.38;;;16.20;79.30;;;;;;4161489;28;20579;-50
2024/03/19 08:09:14;;;;;;;12.02;7.88;;;16.20;79.50;;;;;;4168443;28;20056;-41
2024/03/19 08:11:54;;;;;;;11.38;7.40;;;16.20;79.60;;;;;;4169880;28;20056;-41
2024/03/19 08:14:35;;;;;;;17.33;8.02;;;16.10;79.70;;;;;;4171812;28;20055;-41
2024/03/19 08:17:18;;;;;;;14.68;8.35;;;16.00;79.90;;;;;;4172088;28;20060;-41
2024/03/19 08:19:59;;;;;;;16.35;8.13;;;16.10;80.20;;;;;;4155161;28;20055;-41
2024/03/19 08:22:39;;;;;;;17.70;8.10;;;16.00;80.20;;;;;;4140347;28;20147;-49
2024/03/19 08:25:19;;;;;;;13.25;8.13;;;16.00;80.30;;;;;;4161977;28;20503;-47
2024/03/19 08:27:59;;;;;;;14.43;8.75;;;16.00;80.80;;;;;;4168227;28;20056;-46
2024/03/19 08:30:39;;;;;;;12.32;7.10;;;16.00;80.80;;;;;;4160814;28;20056;-50
2024/03/19 08:33:20;;;;;;;11.38;6.63;;;15.90;81.00;;;;;;4170825;28;20052;-41
2024/03/19 08:36:01;;;;;;;12.93;6.82;;;15.90;81.00;;;;;;4165856;28;20591;-42
2024/03/19 08:38:41;;;;;;;11.35;6.10;;;15.90;81.20;;;;;;4155060;28;20051;-41
2024/03/19 08:41:21;;;;;;;11.18;6.20;;;15.90;81.20;;;;;;4165863;28;20084;-41
2024/03/19 08:44:02;;;;;;;9.27;5.75;;;15.90;81.30;;;;;;4171691;28;20131;-42
2024/03/19 08:46:42;;;;;;;8.88;6.13;;;15.90;81.30;;;;;;4170588;28;20407;-42
2024/03/19 08:49:23;;;;;;;11.45;5.55;;;15.90;81.30;;;;;;4171366;28;20136;-43
2024/03/19 08:52:04;;;;;;;9.80;5.45;;;15.90;81.30;;;;;;4157722;28;20056;-41
2024/03/19 08:54:44;;;;;;;10.87;5.70;;;15.90;81.70;;;;;;4156569;28;20060;-48
2024/03/19 08:57:24;;;;;;;9.75;5.25;;;15.90;81.70;;;;;;4141299;28;21718;-47
2024/03/19 09:00:10;;;;;;;10.90;5.15;;;15.90;81.50;;;;;;4141101;28;20404;-48
2024/03/19 09:02:51;;;;;;;8.50;5.13;;;15.90;81.50;;;;;;4154783;28;20111;-42
2024/03/19 09:05:33;;;;;;;9.23;5.38;;;15.90;81.30;;;;;;4168346;28;20761;-42
2024/03/19 09:08:14;;;;;;;;;;;15.90;81.20;;;;;;4161077;28;20071;-42
2024/03/19 09:10:55;;;;;;;10.38;5.28;;;15.90;80.90;;;;;;4167414;28;19939;-42
2024/03/19 09:13:35;;;;;;;11.68;5.80;;;15.90;80.80;;;;;;4158436;28;20064;-42
2024/03/19 09:16:15;;;;;;;6.70;4.40;;;15.90;80.80;;;;;;4154434;28;20052;-42
2024/03/19 09:18:56;;;;;;;6.63;4.50;;;15.90;80.80;;;;;;4154464;28;20106;-42
2024/03/19 09:21:37;;;;;;;7.95;4.22;;;15.90;80.70;;;;;;4160490;28;20538;-43
2024/03/19 09:24:17;;;;;;;8.65;4.22;;;15.90;80.60;;;;;;4155376;28;20427;-42
2024/03/19 09:26:57;;;;;;;7.28;4.55;;;15.90;80.40;;;;;;4158944;28;20278;-42
2024/03/19 09:29:37;;;;;;;7.00;3.92;;;15.90;80.40;;;;;;4158521;28;20047;-42
2024/03/19 09:32:17;;;;;;;6.80;4.20;;;15.90;80.30;;;;;;4155786;28;20114;-42
2024/03/19 09:34:57;;;;;;;7.35;4.28;;;15.90;80.30;;;;;;4168250;28;20063;-42
2024/03/19 09:37:39;;;;;;;6.93;4.25;;;15.90;80.20;;;;;;4166471;28;20079;-42
2024/03/19 09:40:19;;;;;;;;;;;15.90;80.10;;;;;;4151487;28;20138;-48
2024/03/19 09:42:59;;;;;;;7.32;3.95;;;15.90;80.10;;;;;;4159839;28;20062;-48
2024/03/19 09:45:41;;;;;;;7.47;4.38;;;15.90;80.00;;;;;;4168294;28;20163;-49
2024/03/19 09:48:22;;;;;;;6.93;3.85;;;15.90;79.90;;;;;;4167583;28;20051;-48
2024/03/19 09:51:02;;;;;;;8.87;4.80;;;15.90;79.90;;;;;;4170258;28;20063;-49
2024/03/19 09:53:44;;;;;;;4.85;4.03;;;15.90;79.90;;;;;;4170381;28;20060;-51
2024/03/19 09:56:24;;;;;;;4.85;3.70;;;15.90;79.80;;;;;;4159142;28;20051;-48
2024/03/19 09:59:05;;;;;;;5.85;3.97;;;15.90;80.00;;;;;;4156225;28;20045;-45
2024/03/19 10:01:46;;;;;;;4.75;3.55;;;15.90;80.50;;;;;;4151316;28;20164;-42
2024/03/19 10:04:26;;;;;;;7.90;3.30;;;15.90;80.50;;;;;;4149064;28;20566;-42
2024/03/19 10:07:08;;;;;;;5.30;3.33;;;16.00;80.50;;;;;;4153926;28;20147;-42
2024/03/19 10:09:51;;;;;;;4.60;2.90;;;16.00;80.30;;;;;;4170048;28;20146;-43
2024/03/19 10:12:32;;;;;;;4.15;3.00;;;16.00;80.30;;;;;;4167532;28;20051;-43
2024/03/19 10:15:19;;;;;;;4.07;3.40;;;16.10;80.40;;;;;;4159139;28;20052;-42
2024/03/19 10:17:59;;;;;;;5.60;3.55;;;16.10;80.00;;;;;;4154125;28;20060;-42
2024/03/19 10:20:40;;;;;;;4.20;2.78;;;16.20;79.90;;;;;;4153684;28;20056;-43
2024/03/19 10:23:20;;;;;;;6.90;4.03;;;16.20;79.70;;;;;;4143976;28;20061;-43
2024/03/19 10:26:03;;;;;;;4.90;2.75;;;16.20;79.80;;;;;;4162405;28;20056;-43
2024/03/19 10:28:43;;;;;;;7.00;2.67;;;16.30;79.90;;;;;;4162997;28;20371;-42
2024/03/19 10:31:23;;;;;;;2.58;2.22;;;16.30;79.70;;;;;;4164764;28;20056;-50
2024/03/19 10:34:05;;;;;;;5.65;2.58;;;16.30;79.40;;;;;;4154838;28;20060;-42
2024/03/19 10:36:48;;;;;;;6.32;3.08;;;16.30;79.30;;;;;;4152258;28;20068;-47
2024/03/19 10:39:28;;;;;;;4.05;2.72;;;16.40;79.20;;;;;;4153127;28;20064;-49
2024/03/19 10:42:14;;;;;;;6.20;3.25;;;16.40;79.10;;;;;;4153866;28;20099;-47
2024/03/19 10:44:56;;;;;;;4.82;3.00;;;16.40;79.00;;;;;;4167693;28;20051;-48
2024/03/19 10:47:36;;;;;;;8.80;3.13;;;16.50;79.00;;;;;;4155255;28;20052;-50
2024/03/19 10:50:19;;;;;;;5.57;3.15;;;16.50;79.00;;;;;;4152030;28;20056;-49
2024/03/19 10:53:03;;;;;;;4.20;2.83;;;16.50;79.00;;;;;;4156315;28;20471;-48
2024/03/19 10:55:46;;;;;;;6.40;3.50;;;16.50;79.00;;;;;;4169595;28;20098;-45
2024/03/19 10:58:28;;;;;;;3.28;2.70;;;16.50;78.90;;;;;;4158395;28;20106;-50
2024/03/19 11:01:08;;;;;;;6.45;2.95;;;16.50;78.80;;;;;;4142514;28;20056;-43
2024/03/19 11:03:54;;;;;;;4.75;3.15;;;16.50;79.00;;;;;;4153394;28;20161;-41
2024/03/19 11:06:34;;;;;;;6.38;3.35;;;16.60;78.70;;;;;;4169407;28;20106;-50
2024/03/19 11:09:19;;;;;;;5.22;3.15;;;16.50;78.70;;;;;;4168892;28;20130;-53
2024/03/19 11:12:02;;;;;;;3.92;3.33;;;16.60;79.00;;;;;;4169126;28;20167;-48
2024/03/19 11:14:54;;;;;;;3.67;3.10;;;16.60;78.90;;;;;;4156132;28;20408;-47
2024/03/19 11:17:40;;;;;;;7.75;3.10;;;16.60;78.80;;;;;;4152249;28;20151;-46
2024/03/19 11:20:21;;;;;;;5.07;2.65;;;16.60;78.60;;;;;;4152028;28;20104;-48
2024/03/19 11:23:04;;;;;;;6.30;2.50;;;16.60;78.70;;;;;;4164508;28;20065;-49
2024/03/19 11:25:46;;;;;;;3.58;2.75;;;16.60;78.10;;;;;;4177609;28;20063;-51
2024/03/19 11:28:27;;;;;;;2.78;2.33;;;16.60;77.80;;;;;;4178874;28;20106;-48
2024/03/19 11:31:10;;;;;;;;;;;16.50;77.40;;;;;;4166980;28;20249;-50
2024/03/19 11:33:52;;;;;;;4.13;2.78;;;16.60;77.40;;;;;;4176331;28;19932;-47
2024/03/19 11:36:32;;;;;;;;;;;16.50;77.20;;;;;;4169890;28;20051;-50
2024/03/19 11:39:13;;;;;;;4.20;2.30;;;16.50;77.20;;;;;;4159748;28;19947;-50
2024/03/19 11:41:53;;;;;;;4.28;2.42;;;16.50;77.20;;;;;;4153638;28;20099;-49
2024/03/19 11:44:33;;;;;;;6.05;2.90;;;16.50;77.10;;;;;;4158258;28;20045;-52
2024/03/19 11:47:15;;;;;;;3.22;2.00;;;16.50;77.10;;;;;;4176398;28;20094;-50
2024/03/19 11:49:55;;;;;;;3.08;2.50;;;16.50;77.10;;;;;;4154928;28;20111;-50
2024/03/19 11:52:36;;;;;;;4.97;2.20;;;16.50;77.00;;;;;;4177447;28;20125;-49
2024/03/19 11:55:20;;;;;;;3.50;1.92;;;16.50;76.90;;;;;;4170341;28;20071;-49
2024/03/19 11:58:01;;;;;;;2.67;2.35;;;16.50;77.50;;;;;;4170030;28;20125;-50
2024/03/19 12:00:41;;;;;;;2.88;1.98;;;16.50;76.70;;;;;;4185710;28;20059;-48
2024/03/19 12:03:23;;;;;;;2.50;2.30;;;16.50;76.60;;;;;;4185167;28;20059;-48
2024/03/19 12:06:05;;;;;;;;;;;16.50;76.50;;;;;;4154366;28;20487;-51
2024/03/19 12:08:49;;;;;;;3.33;2.22;;;16.50;76.60;;;;;;4158384;28;19934;-53
2024/03/19 12:11:29;;;;;;;6.75;3.22;;;16.50;76.70;;;;;;4169463;28;20056;-50
2024/03/19 12:14:13;;;;;;;4.88;2.53;;;16.50;76.60;;;;;;4177113;28;20129;-50
2024/03/19 12:16:55;;;;;;;1.95;1.85;;;16.60;76.50;;;;;;4178796;28;20056;-49
2024/03/19 12:19:37;;;;;;;4.32;1.95;;;16.50;76.30;;;;;;4169635;28;20110;-52
2024/03/19 12:22:18;;;;;;;3.00;2.40;;;16.50;76.30;;;;;;4175498;28;20105;-51
2024/03/19 12:24:58;;;;;;;2.85;2.28;;;16.50;76.30;;;;;;4172935;28;20088;-49
2024/03/19 12:27:39;;;;;;;4.45;2.50;;;16.50;76.30;;;;;;4160563;28;20606;-50
2024/03/19 12:30:21;;;;;;;2.40;1.77;;;16.50;76.30;;;;;;4166940;28;20056;-50
2024/03/19 12:33:10;;;;;;;3.17;1.92;;;16.50;76.20;;;;;;4168693;28;20056;-53
2024/03/19 12:35:52;;;;;;;2.10;1.90;;;16.50;76.00;;;;;;4169406;28;20115;-46
2024/03/19 12:38:32;;;;;;;2.78;1.98;;;16.50;75.90;;;;;;4185068;28;20067;-45
2024/03/19 12:41:14;;;;;;;2.43;1.83;;;16.40;75.70;;;;;;4171109;28;20059;-44
2024/03/19 12:43:54;;;;;;;2.47;1.90;;;16.40;75.50;;;;;;4170639;28;21214;-46
2024/03/19 12:46:34;;;;;;;2.80;2.03;;;16.40;75.50;;;;;;4183344;28;20407;-47
2024/03/19 12:49:14;;;;;;;3.35;2.03;;;16.40;75.50;;;;;;4184532;28;20154;-46
2024/03/19 12:51:56;;;;;;;2.05;1.58;;;16.40;75.50;;;;;;4152292;28;20051;-45
2024/03/19 12:54:36;;;;;;;2.92;1.95;;;16.40;75.40;;;;;;4139503;28;20118;-45
2024/03/19 12:57:16;;;;;;;2.83;2.38;;;16.50;75.20;;;;;;4158023;28;20060;-44
2024/03/19 12:59:56;;;;;;;3.60;1.90;;;16.40;74.90;;;;;;4167693;28;20474;-46
2024/03/19 13:02:36;;;;;;;4.13;2.00;;;16.50;74.90;;;;;;4167484;28;20130;-44
2024/03/19 13:05:16;;;;;;;4.45;2.38;;;16.50;74.80;;;;;;4176002;28;20055;-52
2024/03/19 13:07:59;;;;;;;3.75;2.78;;;16.50;74.70;;;;;;4183798;28;20051;-51
2024/03/19 13:10:40;;;;;;;8.07;2.50;;;16.50;74.70;;;;;;4155784;28;20175;-50
2024/03/19 13:13:20;;;;;;;4.38;2.05;;;16.50;74.70;;;;;;4163833;28;20191;-50
2024/03/19 13:16:00;;;;;;;3.92;2.20;;;16.50;74.70;;;;;;4159281;28;20060;-53
2024/03/19 13:18:40;;;;;;;2.90;1.80;;;16.60;75.60;;;;;;4171936;28;20091;-53
2024/03/19 13:21:20;;;;;;;2.47;1.88;;;16.60;74.70;;;;;;4153501;28;20060;-48
2024/03/19 13:24:01;;;;;;;2.15;1.80;;;16.60;74.80;;;;;;4168950;28;20551;-49
2024/03/19 13:26:41;;;;;;;3.58;2.00;;;16.60;74.80;;;;;;4155624;28;20140;-46
2024/03/19 13:29:21;;;;;;;14.00;2.60;;;16.60;74.80;;;;;;4151875;28;20064;-44
2024/03/19 13:32:01;;;;;;;8.65;2.42;;;16.60;74.80;;;;;;4155435;28;20055;-45
2024/03/19 13:34:41;;;;;;;2.30;1.83;;;16.60;74.80;;;;;;4169147;28;20098;-45
2024/03/19 13:37:21;;;;;;;2.33;1.90;;;16.60;74.80;;;;;;4167860;28;20051;-48
2024/03/19 13:40:02;;;;;;;2.85;2.20;;;16.70;74.90;;;;;;4171119;28;20422;-46
2024/03/19 13:42:43;;;;;;;6.25;2.42;;;16.70;74.80;;;;;;4164165;28;20091;-45
2024/03/19 13:45:23;;;;;;;4.00;2.58;;;16.70;74.80;;;;;;4182537;28;20055;-47
2024/03/19 13:48:03;;;;;;;3.08;2.78;;;16.70;74.80;;;;;;4175108;28;20048;-45
2024/03/19 13:50:43;;;;;;;1.60;1.27;;;16.70;74.60;;;;;;4165690;28;20059;-47
2024/03/19 13:53:23;;;;;;;1.85;1.75;;;16.70;74.50;;;;;;4168263;28;20056;-45
2024/03/19 13:56:05;;;;;;;4.32;2.25;;;16.70;74.50;;;;;;4168310;28;20056;-47